Time;durP1;ratioP1;P1;durP2;ratioP2;P2;SDS_P1;SDS_P2;PMS_P1;PMS_P2;Temp;Humidity;BMP_temperature;BMP_pressure;BME280_temperature;BME280_humidity;BME280_pressure;Samples;Min_cycle;Max_cycle;Signal;HPM_P1;HPM_P2
2023/03/12 00:02:21;;;;;;;3.17;2.88;;;;;;;0.41;83.37;100487.13;4832921;29;20209;-68
2023/03/12 00:04:50;;;;;;;3.53;1.52;;;;;;;0.49;82.75;100490.88;4837025;29;20220;-70
2023/03/12 00:07:19;;;;;;;5.47;1.88;;;;;;;0.44;83.23;100481.50;4836732;29;20253;-69
2023/03/12 00:09:50;;;;;;;6.57;2.47;;;;;;;0.41;83.61;100483.63;4824480;29;20676;-68
2023/03/12 00:12:19;;;;;;;1.85;1.40;;;;;;;0.41;83.28;100484.47;4824535;29;20228;-68
2023/03/12 00:14:48;;;;;;;7.72;1.73;;;;;;;0.43;82.87;100485.19;4824437;29;20241;-69
2023/03/12 00:17:19;;;;;;;6.78;2.17;;;;;;;0.43;82.92;100487.84;4833300;29;20240;-68
2023/03/12 00:19:52;;;;;;;3.30;1.55;;;;;;;0.42;82.67;100472.84;4824586;29;20292;-68
2023/03/12 00:22:21;;;;;;;2.72;1.83;;;;;;;0.52;81.92;100479.94;4824715;29;20193;-68
2023/03/12 00:24:53;;;;;;;4.60;2.42;;;;;;;0.54;82.03;100483.28;4830149;29;20202;-68
2023/03/12 00:27:23;;;;;;;3.05;2.10;;;;;;;0.44;82.48;100489.50;4857791;29;20280;-68
2023/03/12 00:29:53;;;;;;;3.40;1.45;;;;;;;0.48;82.73;100490.06;4839331;29;20211;-68
2023/03/12 00:32:23;;;;;;;3.08;1.70;;;;;;;0.48;81.90;100494.53;4834254;29;20645;-69
2023/03/12 00:34:52;;;;;;;4.63;2.75;;;;;;;0.52;81.84;100485.28;4823993;29;20201;-68
2023/03/12 00:37:22;;;;;;;2.05;1.90;;;;;;;0.50;81.58;100495.22;4827513;29;20794;-68
2023/03/12 00:43:17;;;;;;;4.03;2.10;;;;;;;0.50;81.02;100493.41;4838051;29;20294;-70
2023/03/12 00:45:46;;;;;;;4.50;2.20;;;;;;;0.53;81.82;100502.94;4829424;29;20212;-68
2023/03/12 00:48:15;;;;;;;2.65;1.58;;;;;;;0.63;81.28;100503.72;4825137;29;20232;-68
2023/03/12 00:50:44;;;;;;;2.78;1.60;;;;;;;0.86;79.70;100513.00;4836480;29;20219;-71
2023/03/12 00:53:14;;;;;;;4.40;2.00;;;;;;;0.94;79.26;100509.56;4839334;29;20655;-68
2023/03/12 00:55:43;;;;;;;3.28;2.20;;;;;;;1.05;78.73;100504.88;4824077;29;20209;-69
2023/03/12 00:58:12;;;;;;;2.30;1.40;;;;;;;1.13;77.90;100507.63;4833847;29;20224;-69
2023/03/12 01:00:43;;;;;;;2.35;1.77;;;;;;;1.26;77.94;100508.06;4815926;29;20216;-69
2023/03/12 01:03:13;;;;;;;5.35;1.58;;;;;;;1.22;77.88;100506.69;4825018;29;20215;-68
2023/03/12 01:05:42;;;;;;;5.57;1.75;;;;;;;1.33;77.78;100512.81;4823646;29;20209;-69
2023/03/12 01:08:12;;;;;;;2.47;1.95;;;;;;;1.30;77.42;100520.13;4823834;29;20229;-69
2023/03/12 01:10:43;;;;;;;2.53;2.00;;;;;;;1.22;78.10;100522.69;4825215;29;20223;-69
2023/03/12 01:13:12;;;;;;;4.68;2.55;;;;;;;1.24;77.61;100518.06;4824242;29;20633;-70
2023/03/12 01:15:42;;;;;;;6.07;1.58;;;;;;;1.22;77.11;100514.69;4839208;29;20211;-69
2023/03/12 01:18:12;;;;;;;3.10;1.50;;;;;;;1.15;77.82;100518.97;4823942;29;20236;-69
2023/03/12 01:20:41;;;;;;;5.68;2.25;;;;;;;1.02;78.40;100515.81;4823742;29;20239;-68
2023/03/12 01:23:11;;;;;;;3.72;2.13;;;;;;;1.05;79.73;100526.19;4824940;29;20196;-69
2023/03/12 01:25:40;;;;;;;5.28;1.95;;;;;;;1.02;78.64;100515.81;4830673;29;20268;-67
2023/03/12 01:28:09;;;;;;;4.40;2.47;;;;;;;0.99;79.18;100518.78;4838726;29;20662;-68
2023/03/12 01:30:38;;;;;;;4.95;2.03;;;;;;;1.08;78.55;100515.22;4831663;29;20270;-68
2023/03/12 01:33:09;;;;;;;4.78;2.00;;;;;;;1.13;78.68;100528.94;4823395;29;20322;-69
2023/03/12 01:35:40;;;;;;;5.50;1.95;;;;;;;1.26;78.53;100529.38;4824537;29;20759;-68
2023/03/12 01:38:14;;;;;;;6.72;1.75;;;;;;;1.37;78.10;100530.16;4825047;29;20227;-68
2023/03/12 01:40:44;;;;;;;3.88;2.05;;;;;;;1.35;77.45;100534.81;4831546;29;20201;-67
2023/03/12 01:43:26;;;;;;;3.35;2.00;;;;;;;1.39;77.47;100538.84;4838273;29;20206;-68
2023/03/12 01:46:27;;;;;;;2.33;1.88;;;;;;;1.35;77.91;100537.50;4820358;29;20614;-68
2023/03/12 01:49:03;;;;;;;3.10;1.58;;;;;;;1.41;78.02;100547.53;4817653;29;20705;-69
2023/03/12 01:51:36;;;;;;;3.28;1.60;;;;;;;1.40;78.27;100546.72;4823644;29;20201;-69
2023/03/12 01:54:09;;;;;;;2.78;1.75;;;;;;;1.45;78.24;100543.59;4823588;29;20696;-68
2023/03/12 01:56:39;;;;;;;5.43;1.98;;;;;;;1.38;77.87;100548.69;4823377;29;20209;-69
2023/03/12 02:02:59;;;;;;;1.88;1.65;;;;;;;1.47;78.78;100549.59;4825331;29;20302;-69
2023/03/12 02:05:42;;;;;;;3.85;2.15;;;;;;;1.49;78.24;100559.13;4836955;29;20220;-68
2023/03/12 02:08:13;;;;;;;11.63;2.22;;;;;;;1.60;78.01;100560.72;4824577;29;20240;-67
2023/03/12 02:10:44;;;;;;;2.00;1.63;;;;;;;1.61;78.03;100560.56;4825193;29;20197;-68
2023/03/12 02:13:29;;;;;;;3.13;2.45;;;;;;;1.74;78.47;100565.53;4818599;29;20217;-68
2023/03/12 02:15:58;;;;;;;2.95;2.55;;;;;;;1.73;77.89;100569.19;4821552;29;20292;-69
2023/03/12 02:18:28;;;;;;;4.53;2.75;;;;;;;1.58;77.66;100571.56;4823837;29;20221;-68
2023/03/12 02:21:08;;;;;;;2.50;2.17;;;;;;;1.52;78.07;100572.16;4835807;29;20269;-69
2023/03/12 02:23:46;;;;;;;8.82;2.83;;;;;;;1.45;78.63;100565.75;4829042;29;20208;-69
2023/03/12 02:26:21;;;;;;;3.63;2.55;;;;;;;1.38;79.21;100569.16;4818170;29;20220;-69
2023/03/12 02:28:51;;;;;;;3.00;2.25;;;;;;;1.24;79.53;100568.72;4827934;29;20244;-68
2023/03/12 02:31:25;;;;;;;4.55;2.30;;;;;;;1.00;80.22;100576.44;4838899;29;20612;-68
2023/03/12 02:33:57;;;;;;;5.25;2.38;;;;;;;0.90;82.19;100578.28;4838911;29;20681;-69
2023/03/12 02:36:26;;;;;;;7.57;3.03;;;;;;;0.80;82.64;100572.16;4835487;29;20212;-68
2023/03/12 02:38:56;;;;;;;4.65;2.30;;;;;;;0.71;82.92;100570.41;4825564;29;20229;-69
2023/03/12 02:41:29;;;;;;;4.68;2.50;;;;;;;0.68;82.85;100578.66;4823550;29;20233;-68
2023/03/12 02:44:03;;;;;;;4.55;2.47;;;;;;;0.54;83.03;100577.31;4823036;29;20684;-68
2023/03/12 02:46:38;;;;;;;10.88;2.60;;;;;;;0.52;82.87;100587.28;4834707;29;20229;-68
2023/03/12 02:49:07;;;;;;;10.10;2.60;;;;;;;0.42;83.51;100595.31;4823136;29;20226;-68
2023/03/12 02:51:36;;;;;;;3.58;1.85;;;;;;;0.33;83.96;100596.16;4824179;29;20203;-68
2023/03/12 02:54:07;;;;;;;2.00;1.60;;;;;;;0.36;84.47;100595.88;4830388;29;20275;-68
2023/03/12 02:56:38;;;;;;;3.38;2.33;;;;;;;0.29;84.04;100591.28;4837874;29;20247;-68
2023/03/12 02:59:08;;;;;;;5.45;2.03;;;;;;;0.23;84.69;100592.69;4834074;29;20285;-67
2023/03/12 03:01:42;;;;;;;3.05;2.13;;;;;;;0.21;84.92;100593.78;4840967;29;20220;-68
2023/03/12 03:04:13;;;;;;;2.22;1.60;;;;;;;0.16;85.42;100594.22;4826656;29;20257;-67
2023/03/12 03:06:47;;;;;;;6.82;2.58;;;;;;;0.13;85.15;100599.84;4827416;29;20215;-67
2023/03/12 03:09:16;;;;;;;3.65;2.50;;;;;;;0.05;85.91;100591.72;4828197;29;20207;-68
2023/03/12 03:11:47;;;;;;;5.75;2.60;;;;;;;0.05;86.59;100598.88;4833440;29;20760;-68
2023/03/12 03:14:16;;;;;;;4.95;2.95;;;;;;;0.04;86.60;100602.50;4826085;29;20225;-69
2023/03/12 03:16:47;;;;;;;4.22;2.42;;;;;;;-0.04;86.44;100608.53;4841068;29;20216;-69
2023/03/12 03:19:16;;;;;;;6.15;2.42;;;;;;;-0.02;86.63;100610.06;4841553;29;20689;-67
2023/03/12 03:21:45;;;;;;;3.83;2.33;;;;;;;-0.05;86.39;100614.84;4842406;29;20594;-68
2023/03/12 03:24:15;;;;;;;2.78;2.42;;;;;;;-0.15;87.37;100606.03;4826159;29;20200;-68
2023/03/12 03:26:46;;;;;;;5.03;2.40;;;;;;;-0.15;87.24;100619.34;4841283;29;20586;-68
2023/03/12 03:29:15;;;;;;;7.18;2.55;;;;;;;-0.14;87.01;100613.84;4826905;29;20215;-68
2023/03/12 03:31:45;;;;;;;9.68;1.90;;;;;;;-0.11;87.47;100620.72;4833722;29;20207;-68
2023/03/12 03:34:14;;;;;;;2.65;2.25;;;;;;;-0.14;87.65;100624.50;4826502;29;20224;-68
2023/03/12 03:36:43;;;;;;;5.82;2.88;;;;;;;-0.16;87.50;100618.50;4830607;29;20208;-68
2023/03/12 03:39:15;;;;;;;7.22;2.47;;;;;;;-0.19;88.02;100617.91;4829581;29;20232;-68
2023/03/12 03:41:46;;;;;;;5.65;2.53;;;;;;;-0.31;88.61;100630.50;4827769;29;20200;-70
2023/03/12 03:44:18;;;;;;;3.35;2.30;;;;;;;-0.33;89.51;100620.97;4825461;29;20216;-69
2023/03/12 03:46:48;;;;;;;3.35;2.47;;;;;;;-0.38;90.06;100620.56;4823900;29;20200;-68
2023/03/12 03:49:18;;;;;;;4.07;2.22;;;;;;;-0.33;89.73;100628.94;4825358;29;20214;-67
2023/03/12 03:51:48;;;;;;;4.68;2.72;;;;;;;-0.25;89.09;100632.63;4824933;29;20307;-68
2023/03/12 03:54:22;;;;;;;8.25;3.00;;;;;;;-0.26;89.21;100627.44;4840444;29;20668;-68
2023/03/12 03:56:52;;;;;;;11.20;3.88;;;;;;;-0.27;88.84;100641.72;4823043;29;20209;-68
2023/03/12 03:59:22;;;;;;;9.68;3.17;;;;;;;-0.29;88.72;100638.38;4820928;29;20594;-68
2023/03/12 04:01:51;;;;;;;7.97;3.53;;;;;;;-0.33;89.01;100636.94;4827606;29;20197;-68
2023/03/12 04:04:20;;;;;;;4.40;1.80;;;;;;;-0.29;89.13;100641.03;4839900;29;20705;-68
2023/03/12 04:06:50;;;;;;;6.30;2.03;;;;;;;-0.30;89.50;100647.31;4825038;29;20209;-69
2023/03/12 04:09:19;;;;;;;5.70;3.00;;;;;;;-0.32;88.97;100638.63;4825987;29;20200;-69
2023/03/12 04:11:48;;;;;;;5.95;2.33;;;;;;;-0.27;89.94;100644.38;4840505;29;20282;-68
2023/03/12 04:14:19;;;;;;;3.40;2.45;;;;;;;-0.34;89.53;100653.88;4825101;29;20239;-69
2023/03/12 04:16:48;;;;;;;3.60;2.30;;;;;;;-0.29;89.42;100654.31;4824904;29;20227;-68
2023/03/12 04:19:17;;;;;;;3.15;2.85;;;;;;;-0.32;89.09;100654.56;4828528;29;20223;-68
2023/03/12 04:21:46;;;;;;;5.88;2.80;;;;;;;-0.37;89.53;100662.13;4841115;29;20199;-68
2023/03/12 04:24:17;;;;;;;2.88;2.15;;;;;;;-0.33;89.88;100663.53;4825680;29;20333;-68
2023/03/12 04:26:46;;;;;;;6.80;2.97;;;;;;;-0.33;89.72;100661.72;4824281;29;20271;-68
2023/03/12 04:29:18;;;;;;;8.63;3.20;;;;;;;-0.35;90.27;100660.19;4824399;29;20585;-68
2023/03/12 04:31:47;;;;;;;9.15;3.65;;;;;;;-0.41;90.41;100656.25;4832104;29;20208;-68
2023/03/12 04:34:17;;;;;;;3.67;2.80;;;;;;;-0.44;90.81;100656.53;4826042;29;20219;-68
2023/03/12 04:36:48;;;;;;;6.55;3.78;;;;;;;-0.46;91.55;100659.31;4824569;29;20295;-68
2023/03/12 04:39:19;;;;;;;5.72;2.40;;;;;;;-0.45;91.00;100663.66;4827126;29;20564;-68
2023/03/12 04:41:50;;;;;;;3.72;3.10;;;;;;;-0.48;91.92;100663.91;4831467;29;20944;-69
2023/03/12 04:44:21;;;;;;;7.10;3.53;;;;;;;-0.55;91.88;100665.47;4824357;29;20216;-68
2023/03/12 04:46:50;;;;;;;8.88;4.10;;;;;;;-0.53;92.89;100662.66;4823997;29;20537;-68
2023/03/12 04:49:23;;;;;;;7.93;3.58;;;;;;;-0.51;93.13;100668.69;4827347;29;20706;-68
2023/03/12 04:51:52;;;;;;;5.80;4.15;;;;;;;-0.51;93.28;100658.88;4838638;29;20233;-68
2023/03/12 04:54:22;;;;;;;7.35;3.70;;;;;;;-0.64;93.42;100671.59;4840001;29;20242;-68
2023/03/12 04:56:52;;;;;;;5.78;4.65;;;;;;;-0.52;94.27;100670.50;4824992;29;20200;-69
2023/03/12 04:59:24;;;;;;;7.97;3.53;;;;;;;-0.43;93.83;100674.97;4824822;29;20212;-67
2023/03/12 05:01:54;;;;;;;5.60;4.32;;;;;;;-0.49;93.97;100680.88;4825566;29;20276;-68
2023/03/12 05:04:27;;;;;;;13.18;4.07;;;;;;;-0.54;94.24;100685.75;4825122;29;20659;-68
2023/03/12 05:06:57;;;;;;;12.15;5.32;;;;;;;-0.52;94.42;100686.44;4835237;29;20206;-67
2023/03/12 05:09:26;;;;;;;6.65;4.25;;;;;;;-0.56;94.61;100687.69;4824194;29;20306;-68
2023/03/12 05:11:55;;;;;;;5.72;5.20;;;;;;;-0.57;94.37;100688.66;4831595;29;20220;-68
2023/03/12 05:14:26;;;;;;;4.30;3.65;;;;;;;-0.51;94.37;100688.13;4839483;29;20228;-68
2023/03/12 05:16:55;;;;;;;6.22;3.83;;;;;;;-0.52;94.95;100691.75;4826510;29;20216;-68
2023/03/12 05:19:24;;;;;;;6.25;4.32;;;;;;;-0.41;94.75;100692.63;4825290;29;20215;-69
2023/03/12 05:21:53;;;;;;;7.07;4.00;;;;;;;-0.58;94.33;100680.84;4826364;29;20204;-68
2023/03/12 05:24:23;;;;;;;6.70;4.60;;;;;;;-0.56;95.51;100692.16;4824375;29;20647;-68
2023/03/12 05:26:52;;;;;;;6.28;4.30;;;;;;;-0.45;95.37;100692.91;4833831;29;20203;-69
2023/03/12 05:29:26;;;;;;;5.30;4.38;;;;;;;-0.56;95.26;100689.50;4828780;29;20303;-68
2023/03/12 05:31:55;;;;;;;11.48;5.55;;;;;;;-0.46;95.58;100685.06;4839970;29;20215;-69
2023/03/12 05:34:24;;;;;;;5.97;5.47;;;;;;;-0.47;95.18;100681.56;4833334;29;20230;-68
2023/03/12 05:36:54;;;;;;;11.88;4.20;;;;;;;-0.51;95.34;100677.50;4824476;29;20219;-68
2023/03/12 05:39:26;;;;;;;14.65;3.60;;;;;;;-0.46;95.60;100677.94;4823529;29;20217;-68
2023/03/12 05:41:59;;;;;;;7.07;4.28;;;;;;;-0.44;94.89;100678.63;4831668;29;20212;-68
2023/03/12 05:44:40;;;;;;;6.78;3.55;;;;;;;-0.32;95.10;100689.13;4836905;29;20224;-69
2023/03/12 05:47:12;;;;;;;5.05;3.45;;;;;;;-0.35;94.55;100684.09;4835378;29;20228;-68
2023/03/12 05:49:43;;;;;;;8.05;4.32;;;;;;;-0.38;94.14;100687.88;4829218;29;20300;-68
2023/03/12 05:52:12;;;;;;;11.90;4.45;;;;;;;-0.36;93.94;100682.41;4829203;29;20630;-68
2023/03/12 05:54:43;;;;;;;4.68;3.25;;;;;;;-0.33;94.12;100688.28;4836622;29;20223;-69
2023/03/12 05:57:13;;;;;;;9.55;4.25;;;;;;;-0.33;93.75;100690.09;4832709;29;20239;-68
2023/03/12 05:59:43;;;;;;;7.20;4.35;;;;;;;-0.30;93.21;100684.53;4823379;29;20208;-68
2023/03/12 06:02:13;;;;;;;10.27;3.92;;;;;;;-0.22;93.15;100693.50;4823539;29;20230;-70
2023/03/12 06:04:42;;;;;;;7.55;3.55;;;;;;;-0.23;93.13;100702.44;4825232;29;20211;-68
2023/03/12 06:07:11;;;;;;;10.05;3.90;;;;;;;-0.22;93.17;100697.97;4822976;29;20327;-68
2023/03/12 06:09:41;;;;;;;4.35;3.33;;;;;;;-0.12;93.05;100698.84;4823322;29;20200;-68
2023/03/12 06:12:12;;;;;;;4.43;3.85;;;;;;;-0.13;93.36;100697.13;4827297;29;20579;-68
2023/03/12 06:14:43;;;;;;;7.63;3.72;;;;;;;-0.07;92.32;100699.25;4822950;29;20235;-68
2023/03/12 06:17:13;;;;;;;4.65;3.80;;;;;;;-0.10;92.04;100697.69;4823085;29;20289;-67
2023/03/12 06:19:42;;;;;;;6.53;3.65;;;;;;;0.06;91.54;100694.50;4823316;29;20242;-69
2023/03/12 06:22:11;;;;;;;5.03;3.15;;;;;;;0.11;92.31;100694.06;4823205;29;20215;-69
2023/03/12 06:24:41;;;;;;;7.65;4.43;;;;;;;0.27;91.80;100683.72;4823092;29;20688;-67
2023/03/12 06:27:10;;;;;;;7.82;3.08;;;;;;;0.23;91.34;100691.16;4823029;29;20582;-68
2023/03/12 06:29:39;;;;;;;5.75;4.22;;;;;;;0.35;91.47;100703.31;4822784;29;20291;-67
2023/03/12 06:32:10;;;;;;;4.72;3.25;;;;;;;0.46;91.23;100698.81;4824973;29;20200;-68
2023/03/12 06:34:39;;;;;;;6.38;4.00;;;;;;;0.42;90.17;100704.44;4837890;29;20228;-68
2023/03/12 06:37:08;;;;;;;6.40;3.97;;;;;;;0.52;90.11;100699.09;4829371;29;20236;-69
2023/03/12 06:39:37;;;;;;;5.22;3.97;;;;;;;0.75;90.70;100702.28;4826441;29;20209;-67
2023/03/12 06:42:07;;;;;;;8.13;3.72;;;;;;;0.84;88.92;100709.41;4827218;29;20197;-68
2023/03/12 06:44:36;;;;;;;5.40;3.47;;;;;;;0.73;88.90;100713.06;4826302;29;20261;-68
2023/03/12 06:47:06;;;;;;;3.10;2.60;;;;;;;0.77;88.59;100714.50;4832742;29;20220;-70
2023/03/12 06:49:37;;;;;;;7.82;2.80;;;;;;;0.69;88.03;100710.84;4831217;29;20213;-69
2023/03/12 06:52:07;;;;;;;3.58;2.60;;;;;;;0.93;87.89;100713.88;4821460;29;20273;-69
2023/03/12 06:54:36;;;;;;;5.68;3.10;;;;;;;0.97;87.47;100723.25;4825931;29;20224;-69
2023/03/12 06:57:05;;;;;;;6.05;3.75;;;;;;;0.87;87.20;100717.94;4827073;29;20352;-69
2023/03/12 06:59:34;;;;;;;4.25;2.95;;;;;;;1.03;86.55;100720.00;4826206;29;20208;-67
2023/03/12 07:02:04;;;;;;;4.25;2.92;;;;;;;1.28;85.35;100724.69;4838703;29;20299;-69
2023/03/12 07:04:33;;;;;;;5.25;3.35;;;;;;;1.36;84.74;100720.44;4826030;29;20204;-68
2023/03/12 07:07:03;;;;;;;8.38;4.25;;;;;;;1.42;84.20;100717.19;4840909;29;20262;-68
2023/03/12 07:09:33;;;;;;;4.15;3.22;;;;;;;1.67;83.46;100721.84;4841141;29;20215;-68
2023/03/12 07:12:03;;;;;;;6.30;2.97;;;;;;;1.95;82.16;100714.63;4825692;29;20204;-71
2023/03/12 07:14:32;;;;;;;7.32;3.63;;;;;;;2.00;81.50;100715.84;4827217;29;20204;-69
2023/03/12 07:17:04;;;;;;;8.65;3.47;;;;;;;2.17;81.93;100712.38;4825819;29;20221;-69
2023/03/12 07:19:34;;;;;;;5.03;3.05;;;;;;;2.40;80.11;100715.41;4828212;29;20208;-69
2023/03/12 07:22:04;;;;;;;5.75;3.30;;;;;;;2.49;78.61;100722.50;4831706;29;20201;-69
2023/03/12 07:24:33;;;;;;;4.50;3.35;;;;;;;2.47;79.09;100718.31;4826945;29;20201;-68
2023/03/12 07:27:03;;;;;;;4.82;3.58;;;;;;;2.38;79.25;100719.22;4828480;29;20281;-68
2023/03/12 07:29:33;;;;;;;6.25;3.25;;;;;;;2.17;79.34;100728.41;4827175;29;20703;-69
2023/03/12 07:32:02;;;;;;;3.90;2.80;;;;;;;2.18;79.72;100732.72;4827321;29;20291;-69
2023/03/12 07:34:31;;;;;;;6.38;3.60;;;;;;;2.33;79.26;100732.19;4825449;29;20220;-67
2023/03/12 07:37:00;;;;;;;3.90;3.45;;;;;;;2.35;79.87;100735.56;4826072;29;20714;-69
2023/03/12 07:39:32;;;;;;;3.15;2.58;;;;;;;2.33;79.31;100741.03;4827278;29;20205;-68
2023/03/12 07:42:01;;;;;;;5.57;3.85;;;;;;;2.45;79.12;100737.16;4840569;29;20300;-68
2023/03/12 07:44:32;;;;;;;9.80;3.60;;;;;;;2.39;78.31;100742.25;4825475;29;20233;-69
2023/03/12 07:47:01;;;;;;;4.80;3.42;;;;;;;2.47;78.29;100740.50;4825955;29;20228;-67
2023/03/12 07:49:50;;;;;;;12.73;3.60;;;;;;;2.60;78.53;100740.13;4825479;29;20204;-68
2023/03/12 07:52:20;;;;;;;5.85;3.35;;;;;;;2.56;77.15;100744.09;4834690;29;20197;-68
2023/03/12 07:54:51;;;;;;;5.65;3.88;;;;;;;2.65;77.71;100745.84;4828337;29;20600;-68
2023/03/12 07:57:21;;;;;;;6.40;3.70;;;;;;;2.86;76.27;100756.16;4830442;29;20224;-69
2023/03/12 07:59:50;;;;;;;4.97;2.88;;;;;;;2.78;75.58;100751.63;4829724;29;20196;-70
2023/03/12 08:02:20;;;;;;;5.82;3.80;;;;;;;2.66;75.33;100749.34;4827713;29;20213;-70
2023/03/12 08:04:49;;;;;;;5.45;3.95;;;;;;;2.79;75.53;100747.94;4841395;29;20228;-69
2023/03/12 08:07:19;;;;;;;10.63;3.63;;;;;;;2.88;75.40;100751.53;4829871;29;20225;-70
2023/03/12 08:09:49;;;;;;;3.40;2.50;;;;;;;3.05;74.43;100746.13;4828503;29;20235;-68
2023/03/12 08:12:19;;;;;;;5.75;3.17;;;;;;;3.07;73.80;100748.66;4837174;29;20213;-68
2023/03/12 08:14:48;;;;;;;9.63;3.38;;;;;;;3.18;73.83;100758.25;4826712;29;20201;-71
2023/03/12 08:17:17;;;;;;;4.60;4.13;;;;;;;3.34;73.20;100766.38;4825780;29;20324;-71
2023/03/12 08:19:46;;;;;;;3.22;2.88;;;;;;;3.24;73.27;100755.78;4826451;29;20201;-71
2023/03/12 08:22:16;;;;;;;4.57;2.92;;;;;;;3.12;72.81;100757.03;4826086;29;20225;-69
2023/03/12 08:24:45;;;;;;;3.13;2.67;;;;;;;3.24;72.54;100754.94;4832514;29;20741;-68
2023/03/12 08:27:16;;;;;;;5.10;3.20;;;;;;;3.21;73.04;100750.72;4825155;29;20225;-69
2023/03/12 08:29:45;;;;;;;5.05;3.15;;;;;;;3.55;72.44;100752.56;4825914;29;20193;-67
2023/03/12 08:32:14;;;;;;;2.97;2.63;;;;;;;3.57;71.51;100758.63;4824536;29;20232;-69
2023/03/12 08:34:43;;;;;;;6.80;3.58;;;;;;;3.72;71.32;100757.00;4810997;29;20201;-69
2023/03/12 08:37:12;;;;;;;8.07;3.42;;;;;;;3.76;70.45;100751.19;4824339;29;20278;-70
2023/03/12 08:39:42;;;;;;;5.88;3.65;;;;;;;4.20;69.67;100754.50;4824387;29;20319;-70
2023/03/12 08:42:11;;;;;;;3.53;2.55;;;;;;;4.52;68.72;100752.84;4824045;29;20223;-68
2023/03/12 08:44:41;;;;;;;6.80;3.50;;;;;;;4.55;67.96;100758.69;4825395;29;20198;-68
2023/03/12 08:47:10;;;;;;;3.35;3.05;;;;;;;4.50;66.35;100750.34;4835211;29;20355;-68
2023/03/12 08:49:40;;;;;;;3.75;3.00;;;;;;;4.31;67.64;100751.47;4824155;29;20209;-68
2023/03/12 08:52:09;;;;;;;6.13;2.72;;;;;;;4.45;67.74;100744.66;4839172;29;20201;-70
2023/03/12 08:54:38;;;;;;;3.75;2.33;;;;;;;4.80;66.01;100749.66;4826724;29;20205;-69
2023/03/12 08:57:07;;;;;;;4.60;3.10;;;;;;;4.62;66.40;100754.34;4838358;29;20263;-68
2023/03/12 08:59:37;;;;;;;2.85;2.25;;;;;;;4.40;66.55;100735.44;4824803;29;20185;-69
2023/03/12 09:02:10;;;;;;;7.20;3.22;;;;;;;4.22;66.80;100747.09;4824325;29;20209;-69
2023/03/12 09:04:40;;;;;;;6.15;3.90;;;;;;;4.11;67.71;100754.63;4824153;29;20201;-69
2023/03/12 09:07:09;;;;;;;4.35;2.75;;;;;;;4.29;66.50;100749.97;4827266;29;20734;-69
2023/03/12 09:09:38;;;;;;;3.17;2.05;;;;;;;4.49;65.73;100746.00;4823762;29;20678;-69
2023/03/12 09:12:08;;;;;;;8.23;3.50;;;;;;;4.60;65.26;100747.50;4826805;29;20200;-68
2023/03/12 09:14:37;;;;;;;5.15;2.67;;;;;;;4.88;64.57;100753.34;4823615;29;20310;-67
2023/03/12 09:17:29;;;;;;;6.75;3.92;;;;;;;5.23;63.06;100739.53;4834261;29;20312;-71
2023/03/12 09:19:58;;;;;;;8.93;2.20;;;;;;;5.18;62.58;100736.56;4841566;29;20647;-68
2023/03/12 09:22:30;;;;;;;8.07;2.50;;;;;;;5.44;62.51;100731.78;4828377;29;20225;-69
2023/03/12 09:24:59;;;;;;;10.20;2.03;;;;;;;5.90;59.98;100731.97;4824121;29;20229;-68
2023/03/12 09:27:28;;;;;;;4.35;1.90;;;;;;;5.77;58.90;100734.31;4836461;29;20218;-69
2023/03/12 09:29:57;;;;;;;2.83;1.45;;;;;;;6.18;59.01;100738.50;4823363;29;20210;-69
2023/03/12 09:32:30;;;;;;;7.28;2.28;;;;;;;6.22;58.53;100729.06;4823905;29;20206;-69
2023/03/12 09:35:00;;;;;;;3.33;2.25;;;;;;;6.33;57.86;100730.53;4833710;29;20633;-70
2023/03/12 09:37:31;;;;;;;2.88;2.22;;;;;;;6.36;57.43;100731.00;4827847;29;20230;-68
2023/03/12 09:40:04;;;;;;;4.88;2.80;;;;;;;6.36;57.24;100733.69;4825027;29;20206;-70
2023/03/12 09:42:40;;;;;;;4.75;2.17;;;;;;;6.37;56.95;100731.81;4824131;29;20792;-69
2023/03/12 09:45:15;;;;;;;2.83;2.08;;;;;;;6.51;55.81;100731.06;4823682;29;20305;-69
2023/03/12 09:47:50;;;;;;;4.07;1.52;;;;;;;6.01;56.77;100731.53;4823249;29;20237;-69
2023/03/12 09:50:27;;;;;;;2.22;1.25;;;;;;;6.19;56.50;100739.34;4827369;29;20206;-69
2023/03/12 09:53:01;;;;;;;3.42;1.65;;;;;;;6.68;55.79;100724.50;4825648;29;20289;-69
2023/03/12 09:55:37;;;;;;;2.30;1.88;;;;;;;6.79;55.45;100732.16;4818048;29;20316;-71
2023/03/12 09:58:13;;;;;;;6.90;1.50;;;;;;;7.27;54.91;100725.47;4816848;29;20220;-69
2023/03/12 10:00:43;;;;;;;4.72;1.90;;;;;;;7.37;54.42;100714.41;4837375;29;20271;-69
2023/03/12 10:03:42;;;;;;;4.20;2.35;;;;;;;7.60;53.57;100714.34;4821142;29;20211;-68
2023/03/12 10:06:14;;;;;;;4.45;1.75;;;;;;;7.49;54.60;100712.94;4834589;29;20207;-68
2023/03/12 10:08:58;;;;;;;3.25;1.65;;;;;;;7.47;54.21;100711.44;4823551;29;20659;-70
2023/03/12 10:11:41;;;;;;;4.50;1.77;;;;;;;7.65;54.32;100710.03;4851192;29;20229;-69
2023/03/12 10:14:34;;;;;;;3.30;1.95;;;;;;;8.13;53.93;100705.84;4823392;29;20723;-68
2023/03/12 10:17:26;;;;;;;4.55;2.15;;;;;;;8.09;52.70;100698.31;4826620;29;20226;-70
2023/03/12 10:20:30;;;;;;;4.30;1.70;;;;;;;8.46;52.01;100697.31;4822854;29;20211;-69
2023/03/12 10:23:06;;;;;;;8.63;1.75;;;;;;;8.19;52.22;100705.06;4828304;29;20234;-70
2023/03/12 10:25:42;;;;;;;3.67;1.50;;;;;;;8.17;51.52;100696.38;4828173;29;20253;-70
2023/03/12 10:28:17;;;;;;;3.63;1.92;;;;;;;7.43;52.43;100698.38;4823757;29;20702;-69
2023/03/12 10:30:53;;;;;;;5.45;1.65;;;;;;;7.61;53.21;100689.06;4837677;29;20224;-70
2023/03/12 10:33:30;;;;;;;3.75;1.67;;;;;;;7.79;52.82;100676.03;4837435;29;20211;-69
2023/03/12 10:36:01;;;;;;;2.30;2.10;;;;;;;7.76;51.72;100679.09;4824182;29;20207;-71
2023/03/12 10:38:32;;;;;;;4.10;1.52;;;;;;;7.83;51.53;100680.84;4823724;29;20728;-69
2023/03/12 10:41:11;;;;;;;2.00;1.25;;;;;;;7.67;51.77;100672.16;4837805;29;20602;-70
2023/03/12 10:43:41;;;;;;;5.18;1.58;;;;;;;7.89;52.02;100679.22;4834515;29;20215;-70
2023/03/12 10:46:41;;;;;;;3.95;1.88;;;;;;;8.15;51.47;100668.75;4839074;29;20302;-70
2023/03/12 10:49:33;;;;;;;4.88;2.10;;;;;;;7.61;51.18;100671.03;4823660;29;20263;-71
2023/03/12 10:52:15;;;;;;;4.80;2.00;;;;;;;7.14;51.59;100671.44;4835889;29;20204;-71
2023/03/12 10:54:46;;;;;;;5.18;1.52;;;;;;;7.31;50.92;100670.22;4837244;29;20679;-71
2023/03/12 10:57:16;;;;;;;6.15;1.80;;;;;;;7.39;50.58;100658.53;4835256;29;20230;-70
2023/03/12 10:59:48;;;;;;;3.88;1.60;;;;;;;7.37;51.04;100656.03;4825552;29;20232;-69
2023/03/12 11:02:34;;;;;;;1.73;0.93;;;;;;;7.57;49.95;100655.44;4825013;29;20230;-68
2023/03/12 11:05:20;;;;;;;4.50;1.45;;;;;;;7.67;49.56;100646.06;4840671;29;20231;-69
2023/03/12 11:07:52;;;;;;;1.73;1.45;;;;;;;7.52;49.46;100647.94;4829120;29;20225;-70
2023/03/12 11:10:25;;;;;;;4.35;2.38;;;;;;;7.67;48.82;100647.91;4825499;29;20216;-69
2023/03/12 11:13:03;;;;;;;3.00;1.55;;;;;;;7.36;47.56;100638.19;4828867;29;20263;-68
2023/03/12 11:15:40;;;;;;;4.60;1.55;;;;;;;7.51;47.34;100648.13;4827233;29;20228;-68
2023/03/12 11:18:28;;;;;;;2.30;1.67;;;;;;;7.76;47.18;100638.69;4825659;29;20234;-67
2023/03/12 11:21:12;;;;;;;5.15;2.30;;;;;;;7.57;47.43;100633.91;4830465;29;20210;-69
2023/03/12 11:23:47;;;;;;;3.40;3.10;;;;;;;7.83;48.11;100628.84;4837255;29;20258;-70
2023/03/12 11:26:19;;;;;;;5.68;2.40;;;;;;;7.93;47.28;100623.97;4848901;29;20298;-70
2023/03/12 11:28:50;;;;;;;6.05;2.45;;;;;;;7.70;46.43;100623.28;4825481;29;20221;-70
2023/03/12 11:31:27;;;;;;;4.65;2.65;;;;;;;7.72;47.23;100626.63;4828596;29;20210;-67
2023/03/12 11:34:05;;;;;;;2.78;1.95;;;;;;;7.41;47.84;100611.56;4825022;29;20623;-69
2023/03/12 11:36:46;;;;;;;9.90;2.45;;;;;;;7.73;48.59;100612.97;4826808;29;20196;-70
2023/03/12 11:39:26;;;;;;;3.78;2.05;;;;;;;8.21;47.17;100608.69;4824995;29;20218;-69
2023/03/12 11:42:31;;;;;;;3.03;2.05;;;;;;;8.51;47.08;100605.88;4818685;29;20211;-71
2023/03/12 11:45:15;;;;;;;3.35;1.80;;;;;;;8.71;47.75;100604.97;4826573;29;20219;-73
2023/03/12 11:48:03;;;;;;;3.55;1.50;;;;;;;8.77;47.32;100602.50;4840211;29;20292;-73
2023/03/12 11:50:46;;;;;;;9.77;2.95;;;;;;;8.60;48.28;100597.44;4840842;29;20709;-70
2023/03/12 11:53:43;;;;;;;7.15;2.33;;;;;;;8.60;46.78;100596.59;4828150;29;20206;-68
2023/03/12 11:56:24;;;;;;;4.18;2.15;;;;;;;9.04;47.14;100597.09;4824497;29;20277;-69
2023/03/12 11:59:12;;;;;;;7.07;2.38;;;;;;;8.52;44.60;100596.75;4830423;29;20223;-70
2023/03/12 12:01:58;;;;;;;3.80;1.95;;;;;;;8.75;44.32;100591.94;4840510;29;20211;-70
2023/03/12 12:05:07;;;;;;;4.23;1.80;;;;;;;9.09;44.17;100594.63;4830114;29;20589;-71